createdAt,value
2023-05-05T00:00:41.478Z,8.85
2023-05-05T00:03:19.455Z,8.81
2023-05-05T00:05:53.219Z,8.78
2023-05-05T00:08:26.860Z,8.75
2023-05-05T00:10:59.473Z,8.72
2023-05-05T00:13:31.707Z,8.69
2023-05-05T00:16:04.373Z,8.68
2023-05-05T00:18:37.606Z,8.64
2023-05-05T00:21:12.062Z,8.59
2023-05-05T00:24:05.041Z,8.54
2023-05-05T00:26:41.186Z,8.49
2023-05-05T00:29:15.509Z,8.45
2023-05-05T00:32:08.365Z,8.40
2023-05-05T00:34:41.336Z,8.35
2023-05-05T00:37:13.893Z,8.31
2023-05-05T00:39:47.068Z,8.27
2023-05-05T00:42:19.949Z,8.23
2023-05-05T00:44:54.789Z,8.18
2023-05-05T00:47:30.443Z,8.13
2023-05-05T00:50:03.352Z,8.08
2023-05-05T00:52:38.043Z,8.06
2023-05-05T00:55:11.848Z,8.03
2023-05-05T00:57:45.122Z,7.92
2023-05-05T01:00:18.847Z,7.84
2023-05-05T01:02:55.109Z,7.76
2023-05-05T01:05:35.185Z,7.70
2023-05-05T01:08:25.233Z,7.63
2023-05-05T01:11:04.590Z,7.55
2023-05-05T01:13:48.056Z,7.49
2023-05-05T01:16:28.854Z,7.44
2023-05-05T01:19:10.796Z,7.57
2023-05-05T01:21:46.566Z,7.93
2023-05-05T01:24:40.331Z,7.87
2023-05-05T01:27:31.807Z,7.66
2023-05-05T01:30:29.298Z,7.52
2023-05-05T01:33:07.944Z,7.39
2023-05-05T01:35:48.767Z,7.30
2023-05-05T01:38:23.601Z,7.22
2023-05-05T01:41:08.944Z,7.13
2023-05-05T01:43:46.117Z,7.08
2023-05-05T01:46:20.958Z,7.04
2023-05-05T01:48:55.338Z,6.99
2023-05-05T01:51:29.835Z,6.96
2023-05-05T01:54:05.835Z,6.93
2023-05-05T01:56:41.676Z,6.88
2023-05-05T01:59:15.148Z,6.85
2023-05-05T02:01:50.300Z,6.80
2023-05-05T02:04:24.599Z,6.79
2023-05-05T02:07:00.104Z,6.81
2023-05-05T02:09:33.787Z,6.80
2023-05-05T02:12:11.356Z,6.79
2023-05-05T02:14:46.584Z,6.80
2023-05-05T02:17:20.636Z,6.81
2023-05-05T02:19:54.434Z,6.78
2023-05-05T02:22:27.068Z,6.71
2023-05-05T02:25:00.171Z,6.73
2023-05-05T02:27:36.331Z,6.79
2023-05-05T02:30:12.810Z,6.78
2023-05-05T02:32:51.869Z,6.75
2023-05-05T02:35:26.418Z,6.71
2023-05-05T02:38:05.569Z,6.75
2023-05-05T02:40:44.544Z,6.75
2023-05-05T02:43:23.121Z,6.69
2023-05-05T02:45:57.205Z,6.63
2023-05-05T02:48:33.026Z,6.60
2023-05-05T02:51:08.051Z,6.58
2023-05-05T02:53:43.278Z,6.54
2023-05-05T02:56:28.173Z,6.50
2023-05-05T02:59:10.352Z,6.47
2023-05-05T03:01:58.534Z,6.43
2023-05-05T03:04:40.034Z,6.41
2023-05-05T03:07:22.569Z,6.38
2023-05-05T03:10:05.135Z,6.35
2023-05-05T03:12:45.069Z,6.33
2023-05-05T03:15:26.747Z,6.30
2023-05-05T03:18:00.372Z,6.29
2023-05-05T03:20:33.796Z,6.29
2023-05-05T03:23:11.179Z,6.30
2023-05-05T03:25:48.836Z,6.33
2023-05-05T03:28:44.706Z,6.36
2023-05-05T03:31:30.464Z,6.39
2023-05-05T03:34:04.677Z,6.43
2023-05-05T03:36:42.861Z,6.48
2023-05-05T03:39:18.838Z,6.53
2023-05-05T03:41:51.968Z,6.58
2023-05-05T03:44:25.407Z,6.64
2023-05-05T03:46:58.061Z,6.69
2023-05-05T03:49:32.844Z,6.81
2023-05-05T03:52:06.354Z,6.88
2023-05-05T03:54:38.944Z,6.90
2023-05-05T03:57:12.004Z,6.92
2023-05-05T03:59:44.475Z,6.94
2023-05-05T04:02:20.409Z,6.95
2023-05-05T04:04:53.515Z,6.98
2023-05-05T04:07:36.253Z,7.04
2023-05-05T04:10:11.195Z,7.15
2023-05-05T04:12:44.114Z,7.28
2023-05-05T04:15:20.458Z,7.46
2023-05-05T04:17:53.718Z,7.64
2023-05-05T04:20:30.516Z,7.87
2023-05-05T04:23:08.644Z,8.10
2023-05-05T04:25:41.805Z,8.34
2023-05-05T04:28:22.620Z,8.61
2023-05-05T04:30:55.877Z,8.89
2023-05-05T04:33:30.139Z,9.16
2023-05-05T04:36:03.320Z,9.37
2023-05-05T04:38:36.869Z,9.61
2023-05-05T04:41:10.224Z,9.88
2023-05-05T04:43:44.122Z,10.13
2023-05-05T04:46:18.621Z,10.28
2023-05-05T04:48:51.293Z,10.38
2023-05-05T04:51:24.440Z,10.54
2023-05-05T04:53:57.039Z,10.89
2023-05-05T04:56:32.104Z,11.34
2023-05-05T04:59:06.455Z,11.79
2023-05-05T05:01:38.887Z,12.23
2023-05-05T05:04:11.985Z,12.48
2023-05-05T05:06:44.685Z,12.64
2023-05-05T05:09:17.740Z,12.67
2023-05-05T05:11:52.591Z,12.57
2023-05-05T05:14:28.911Z,12.46
2023-05-05T05:17:01.574Z,12.42
2023-05-05T05:19:34.552Z,12.47
2023-05-05T05:22:08.182Z,12.54
2023-05-05T05:24:43.796Z,12.58
2023-05-05T05:27:17.349Z,12.70
2023-05-05T05:29:51.411Z,12.85
2023-05-05T05:32:24.331Z,13.00
2023-05-05T05:34:57.349Z,13.12
2023-05-05T05:37:35.035Z,13.25
2023-05-05T05:40:12.462Z,13.40
2023-05-05T05:42:48.192Z,13.57
2023-05-05T05:45:22.949Z,13.72
2023-05-05T05:47:58.168Z,13.89
2023-05-05T05:50:33.372Z,14.05
2023-05-05T05:53:06.135Z,14.09
2023-05-05T05:55:41.895Z,14.19
2023-05-05T05:58:17.319Z,14.24
2023-05-05T06:00:50.730Z,14.25
2023-05-05T06:03:23.802Z,14.30
2023-05-05T06:06:00.186Z,14.42
2023-05-05T06:08:32.815Z,14.57
2023-05-05T06:11:05.421Z,14.74
2023-05-05T06:13:43.258Z,14.97
2023-05-05T06:16:15.801Z,15.05
2023-05-05T06:18:51.569Z,15.10
2023-05-05T06:21:27.902Z,15.28
2023-05-05T06:24:00.407Z,15.47
2023-05-05T06:26:35.652Z,15.58
2023-05-05T06:29:12.474Z,15.60
2023-05-05T06:31:45.184Z,15.49
2023-05-05T06:34:20.363Z,15.36
2023-05-05T06:36:53.191Z,15.28
2023-05-05T06:39:28.213Z,15.31
2023-05-05T06:42:00.742Z,15.31
2023-05-05T06:44:36.542Z,15.34
2023-05-05T06:47:09.731Z,15.38
2023-05-05T06:50:02.545Z,15.40
2023-05-05T06:52:38.414Z,15.40
2023-05-05T06:55:12.599Z,15.40
2023-05-05T06:57:45.561Z,15.45
2023-05-05T07:00:27.816Z,15.55
2023-05-05T07:03:02.363Z,15.71
2023-05-05T07:05:37.680Z,15.82
2023-05-05T07:08:11.466Z,15.93
2023-05-05T07:10:55.513Z,16.08
2023-05-05T07:13:31.250Z,16.20
2023-05-05T07:16:06.308Z,16.22
2023-05-05T07:18:38.905Z,16.17
2023-05-05T07:21:11.477Z,16.13
2023-05-05T07:23:47.905Z,16.14
2023-05-05T07:26:23.253Z,16.21
2023-05-05T07:28:59.191Z,16.32
2023-05-05T07:31:31.851Z,16.40
2023-05-05T07:34:07.661Z,16.40
2023-05-05T07:36:43.967Z,16.46
2023-05-05T07:39:18.542Z,16.56
2023-05-05T07:41:54.227Z,16.58
2023-05-05T07:44:28.852Z,16.63
2023-05-05T07:47:12.712Z,16.69
2023-05-05T07:49:45.319Z,16.76
2023-05-05T07:52:21.486Z,16.82
2023-05-05T07:55:20.487Z,16.87
2023-05-05T07:57:56.101Z,16.84
2023-05-05T08:00:29.359Z,16.83
2023-05-05T08:03:02.002Z,16.88
2023-05-05T08:05:34.806Z,16.94
2023-05-05T08:08:07.760Z,17.03
2023-05-05T08:10:40.261Z,17.21
2023-05-05T08:13:15.688Z,17.48
2023-05-05T08:15:48.654Z,17.71
2023-05-05T08:18:21.171Z,17.93
2023-05-05T08:20:57.528Z,18.05
2023-05-05T08:23:30.044Z,18.16
2023-05-05T08:26:06.818Z,18.22
2023-05-05T08:28:39.506Z,18.27
2023-05-05T08:31:22.219Z,18.36
2023-05-05T08:33:55.218Z,18.51
2023-05-05T08:36:31.858Z,18.65
2023-05-05T08:39:04.248Z,18.75
2023-05-05T08:41:37.357Z,18.76
2023-05-05T08:44:11.745Z,18.86
2023-05-05T08:46:45.491Z,18.96
2023-05-05T08:49:23.225Z,19.14
2023-05-05T08:51:58.399Z,19.28
2023-05-05T08:54:36.019Z,19.22
2023-05-05T08:57:17.421Z,19.07
2023-05-05T08:59:51.611Z,19.09
2023-05-05T09:02:28.730Z,19.15
2023-05-05T09:05:05.354Z,19.14
2023-05-05T09:07:38.448Z,19.27
2023-05-05T09:10:13.094Z,19.47
2023-05-05T09:12:45.951Z,19.60
2023-05-05T09:15:18.478Z,19.72
2023-05-05T09:17:56.113Z,19.75
2023-05-05T09:20:37.345Z,19.78
2023-05-05T09:23:14.070Z,19.89
2023-05-05T09:25:48.411Z,19.93
2023-05-05T09:28:22.629Z,19.86
2023-05-05T09:31:12.967Z,19.81
2023-05-05T09:33:47.279Z,19.94
2023-05-05T09:36:21.284Z,19.98
2023-05-05T09:39:14.841Z,19.95
2023-05-05T09:41:48.037Z,19.97
2023-05-05T09:44:36.690Z,20.06
2023-05-05T09:47:21.977Z,20.17
2023-05-05T09:50:01.966Z,20.23
2023-05-05T09:52:36.975Z,20.21
2023-05-05T09:55:18.894Z,20.27
2023-05-05T09:57:51.423Z,20.40
2023-05-05T10:00:24.143Z,20.52
2023-05-05T10:03:05.728Z,20.57
2023-05-05T10:06:01.161Z,20.52
2023-05-05T10:08:34.744Z,20.35
2023-05-05T10:11:08.016Z,20.12
2023-05-05T10:13:43.118Z,19.84
2023-05-05T10:16:16.076Z,19.61
2023-05-05T10:18:49.286Z,19.44
2023-05-05T10:21:26.352Z,19.10
2023-05-05T10:24:09.109Z,18.81
2023-05-05T10:26:45.192Z,18.66
2023-05-05T10:29:24.820Z,18.72
2023-05-05T10:32:21.440Z,18.85
2023-05-05T10:35:01.438Z,18.91
2023-05-05T10:37:34.249Z,18.91
2023-05-05T10:40:09.886Z,18.90
2023-05-05T10:42:46.895Z,18.88
2023-05-05T10:45:19.926Z,18.91
2023-05-05T10:47:59.557Z,18.93
2023-05-05T10:50:35.809Z,19.01
2023-05-05T10:53:18.264Z,19.05
2023-05-05T10:55:58.654Z,19.11
2023-05-05T10:58:50.912Z,19.16
2023-05-05T11:01:40.104Z,19.14
2023-05-05T11:04:23.485Z,19.15
2023-05-05T11:07:27.802Z,19.07
2023-05-05T11:10:05.974Z,19.05
2023-05-05T11:13:22.231Z,19.06
2023-05-05T11:15:56.027Z,19.08
2023-05-05T11:18:36.708Z,19.11
2023-05-05T11:21:17.385Z,19.07
2023-05-05T11:23:54.554Z,19.08
2023-05-05T11:26:51.567Z,19.19
2023-05-05T11:29:24.238Z,19.34
2023-05-05T11:32:16.758Z,19.43
2023-05-05T11:34:52.976Z,19.53
2023-05-05T11:37:30.221Z,19.58
2023-05-05T11:40:22.482Z,19.59
2023-05-05T11:43:07.795Z,19.61
2023-05-05T11:45:43.113Z,19.70
2023-05-05T11:48:28.364Z,19.81
2023-05-05T11:51:03.669Z,19.90
2023-05-05T11:53:48.357Z,19.92
2023-05-05T11:56:24.844Z,19.91
2023-05-05T11:59:11.862Z,19.93
2023-05-05T12:01:45.282Z,19.99
2023-05-05T12:04:18.524Z,20.08
2023-05-05T12:06:54.374Z,20.15
2023-05-05T12:09:26.980Z,20.17
2023-05-05T12:12:01.294Z,20.21
2023-05-05T12:14:36.924Z,20.28
2023-05-05T12:17:10.795Z,20.32
2023-05-05T12:19:56.696Z,20.31
2023-05-05T12:22:30.256Z,20.30
2023-05-05T12:25:08.389Z,20.29
2023-05-05T12:27:43.155Z,20.22
2023-05-05T12:30:18.788Z,20.20
2023-05-05T12:32:51.581Z,20.25
2023-05-05T12:35:24.600Z,20.38
2023-05-05T12:37:58.426Z,20.42
2023-05-05T12:40:48.915Z,20.47
2023-05-05T12:43:32.827Z,20.50
2023-05-05T12:46:16.176Z,20.42
2023-05-05T12:49:00.631Z,20.48
2023-05-05T12:51:34.195Z,20.57
2023-05-05T12:54:09.892Z,20.66
2023-05-05T12:56:44.192Z,20.70
2023-05-05T12:59:32.537Z,20.75
2023-05-05T13:02:05.034Z,20.91
2023-05-05T13:04:51.783Z,21.05
2023-05-05T13:07:25.288Z,21.12
2023-05-05T13:10:12.289Z,21.02
2023-05-05T13:12:46.422Z,20.89
2023-05-05T13:15:19.931Z,20.87
2023-05-05T13:17:52.816Z,20.92
2023-05-05T13:20:25.580Z,20.92
2023-05-05T13:22:58.441Z,20.83
2023-05-05T13:25:35.609Z,20.72
2023-05-05T13:28:08.323Z,20.61
2023-05-05T13:30:41.964Z,20.49
2023-05-05T13:33:14.900Z,20.43
2023-05-05T13:35:50.576Z,20.46
2023-05-05T13:38:23.763Z,20.52
2023-05-05T13:40:56.566Z,20.57
2023-05-05T13:43:32.999Z,20.62
2023-05-05T13:46:19.260Z,20.61
2023-05-05T13:48:56.590Z,20.66
2023-05-05T13:51:49.805Z,20.65
2023-05-05T13:54:32.955Z,20.58
2023-05-05T13:57:08.133Z,20.54
2023-05-05T13:59:51.715Z,20.55
2023-05-05T14:02:24.940Z,20.63
2023-05-05T14:05:00.106Z,20.75
2023-05-05T14:07:33.800Z,20.80
2023-05-05T14:10:10.645Z,20.83
2023-05-05T14:12:45.922Z,20.84
2023-05-05T14:15:23.333Z,20.80
2023-05-05T14:17:56.050Z,20.78
2023-05-05T14:20:28.721Z,20.82
2023-05-05T14:23:01.385Z,20.91
2023-05-05T14:25:36.786Z,21.00
2023-05-05T14:28:12.097Z,21.11
2023-05-05T14:30:46.975Z,21.22
2023-05-05T14:33:19.792Z,21.32
2023-05-05T14:35:52.489Z,21.35
2023-05-05T14:38:35.619Z,21.40
2023-05-05T14:41:29.249Z,21.46
2023-05-05T14:44:04.961Z,21.52
2023-05-05T14:46:37.762Z,21.53
2023-05-05T14:49:19.585Z,21.49
2023-05-05T14:51:54.348Z,21.45
2023-05-05T14:54:28.969Z,21.44
2023-05-05T14:57:01.907Z,21.43
2023-05-05T14:59:35.650Z,21.41
2023-05-05T15:02:12.070Z,21.50
2023-05-05T15:05:05.250Z,21.59
2023-05-05T15:07:40.151Z,21.66
2023-05-05T15:10:16.012Z,21.75
2023-05-05T15:12:49.552Z,21.88
2023-05-05T15:15:25.714Z,22.03
2023-05-05T15:17:59.650Z,22.15
2023-05-05T15:20:32.975Z,22.19
2023-05-05T15:23:05.542Z,22.16
2023-05-05T15:25:38.534Z,22.20
2023-05-05T15:28:11.517Z,22.24
2023-05-05T15:30:44.028Z,22.19
2023-05-05T15:33:16.922Z,22.11
2023-05-05T15:35:51.957Z,22.07
2023-05-05T15:38:25.018Z,22.02
2023-05-05T15:41:01.003Z,21.93
2023-05-05T15:43:35.175Z,21.88
2023-05-05T15:46:16.902Z,21.85
2023-05-05T15:48:49.422Z,21.82
2023-05-05T15:51:22.263Z,21.79
2023-05-05T15:54:07.047Z,21.77
2023-05-05T15:56:39.777Z,21.75
2023-05-05T15:59:15.317Z,21.70
2023-05-05T16:01:51.084Z,21.63
2023-05-05T16:04:25.919Z,21.60
2023-05-05T16:07:03.555Z,21.62
2023-05-05T16:09:45.573Z,21.61
2023-05-05T16:12:18.514Z,21.55
2023-05-05T16:14:54.574Z,21.47
2023-05-05T16:17:30.390Z,21.52
2023-05-05T16:20:02.930Z,21.82
2023-05-05T16:22:35.764Z,22.22
2023-05-05T16:25:11.194Z,22.68
2023-05-05T16:27:43.689Z,23.11
2023-05-05T16:30:21.774Z,23.48
2023-05-05T16:32:54.736Z,23.82
2023-05-05T16:35:27.331Z,24.06
2023-05-05T16:38:01.446Z,24.22
2023-05-05T16:40:33.708Z,24.39
2023-05-05T16:43:06.343Z,24.61
2023-05-05T16:45:53.111Z,24.87
2023-05-05T16:48:39.085Z,25.16
2023-05-05T16:51:12.308Z,25.38
2023-05-05T16:53:54.480Z,25.65
2023-05-05T16:56:26.852Z,25.72
2023-05-05T16:59:00.325Z,25.51
2023-05-05T17:01:35.109Z,25.10
2023-05-05T17:04:08.327Z,24.64
2023-05-05T17:06:41.173Z,24.12
2023-05-05T17:09:14.059Z,23.56
2023-05-05T17:11:49.608Z,22.96
2023-05-05T17:14:22.422Z,22.39
2023-05-05T17:16:55.188Z,21.86
2023-05-05T17:19:27.886Z,21.34
2023-05-05T17:22:00.033Z,20.87
2023-05-05T17:24:34.436Z,20.45
2023-05-05T17:27:08.751Z,20.03
2023-05-05T17:29:41.876Z,19.67
2023-05-05T17:32:14.380Z,19.30
2023-05-05T17:34:46.861Z,18.96
2023-05-05T17:37:19.458Z,18.56
2023-05-05T17:39:52.051Z,18.15
2023-05-05T17:42:27.065Z,17.73
2023-05-05T17:44:59.761Z,17.33
2023-05-05T17:47:33.177Z,16.97
2023-05-05T17:50:06.127Z,16.67
2023-05-05T17:52:40.835Z,16.40
2023-05-05T17:55:14.070Z,16.12
2023-05-05T17:57:48.935Z,15.86
2023-05-05T18:00:23.149Z,15.61
2023-05-05T18:02:55.850Z,15.39
2023-05-05T18:05:28.438Z,15.17
2023-05-05T18:08:02.112Z,14.97
2023-05-05T18:10:34.992Z,14.78
2023-05-05T18:13:07.728Z,14.59
2023-05-05T18:15:41.286Z,14.40
2023-05-05T18:18:14.010Z,14.20
2023-05-05T18:20:46.471Z,14.03
2023-05-05T18:23:21.331Z,13.86
2023-05-05T18:25:53.893Z,13.68
2023-05-05T18:28:29.893Z,13.51
2023-05-05T18:31:02.738Z,13.35
2023-05-05T18:33:37.889Z,13.19
2023-05-05T18:36:12.379Z,13.04
2023-05-05T18:38:45.118Z,12.89
2023-05-05T18:41:17.847Z,12.75
2023-05-05T18:43:50.372Z,12.62
2023-05-05T18:46:22.921Z,12.49
2023-05-05T18:48:55.735Z,12.37
2023-05-05T18:51:28.791Z,12.26
2023-05-05T18:54:02.069Z,12.15
2023-05-05T18:56:34.607Z,12.04
2023-05-05T18:59:10.927Z,11.97
2023-05-05T19:01:44.665Z,11.91
2023-05-05T19:04:30.230Z,11.86
2023-05-05T19:07:04.679Z,11.77
2023-05-05T19:09:37.471Z,11.71
2023-05-05T19:12:10.447Z,11.63
2023-05-05T19:14:43.210Z,11.56
2023-05-05T19:17:16.136Z,11.50
2023-05-05T19:19:49.065Z,11.42
2023-05-05T19:22:26.200Z,11.32
2023-05-05T19:24:58.979Z,11.24
2023-05-05T19:27:37.112Z,11.16
2023-05-05T19:30:11.818Z,11.06
2023-05-05T19:32:45.421Z,10.97
2023-05-05T19:35:18.119Z,10.86
2023-05-05T19:37:50.920Z,10.76
2023-05-05T19:40:23.914Z,10.66
2023-05-05T19:42:56.224Z,10.58
2023-05-05T19:45:28.897Z,10.50
2023-05-05T19:48:02.138Z,10.45
2023-05-05T19:50:34.670Z,10.43
2023-05-05T19:53:07.660Z,10.59
2023-05-05T19:55:40.188Z,10.73
2023-05-05T19:58:14.506Z,10.83
2023-05-05T20:00:48.749Z,10.94
2023-05-05T20:03:21.623Z,11.06
2023-05-05T20:05:54.383Z,11.13
2023-05-05T20:08:27.193Z,11.09
2023-05-05T20:10:59.918Z,10.99
2023-05-05T20:13:38.423Z,11.08
2023-05-05T20:16:11.873Z,12.16
2023-05-05T20:18:44.729Z,12.60
2023-05-05T20:21:18.062Z,12.40
2023-05-05T20:23:54.595Z,12.20
2023-05-05T20:26:27.021Z,12.05
2023-05-05T20:29:03.243Z,11.93
2023-05-05T20:31:39.198Z,11.81
2023-05-05T20:34:12.868Z,11.74
2023-05-05T20:36:49.078Z,11.62
2023-05-05T20:39:21.550Z,11.50
2023-05-05T20:41:54.218Z,11.37
2023-05-05T20:44:27.345Z,11.27
2023-05-05T20:47:02.666Z,11.16
2023-05-05T20:49:37.919Z,11.07
2023-05-05T20:52:10.768Z,10.99
2023-05-05T20:54:43.312Z,10.92
2023-05-05T20:57:15.983Z,10.87
2023-05-05T20:59:59.264Z,10.77
2023-05-05T21:02:32.502Z,10.70
2023-05-05T21:05:05.352Z,10.65
2023-05-05T21:07:37.785Z,10.59
2023-05-05T21:10:13.809Z,10.51
2023-05-05T21:12:49.443Z,10.42
2023-05-05T21:15:21.936Z,10.34
2023-05-05T21:17:54.617Z,10.27
2023-05-05T21:20:27.391Z,10.18
2023-05-05T21:23:01.211Z,10.10
2023-05-05T21:25:34.002Z,10.02
2023-05-05T21:28:09.792Z,9.95
2023-05-05T21:30:42.742Z,9.89
2023-05-05T21:33:16.949Z,9.82
2023-05-05T21:35:49.182Z,9.75
2023-05-05T21:38:23.779Z,9.69
2023-05-05T21:41:00.262Z,9.64
2023-05-05T21:43:32.814Z,9.59
2023-05-05T21:46:06.547Z,9.54
2023-05-05T21:48:41.569Z,9.49
2023-05-05T21:51:14.150Z,9.43
2023-05-05T21:53:46.914Z,9.37
2023-05-05T21:56:19.897Z,9.32
2023-05-05T21:58:53.746Z,9.27
2023-05-05T22:01:26.050Z,9.21
2023-05-05T22:03:59.210Z,9.17
2023-05-05T22:06:32.628Z,9.12
2023-05-05T22:09:05.177Z,9.09
2023-05-05T22:11:37.562Z,9.07
2023-05-05T22:14:10.507Z,9.03
2023-05-05T22:16:43.170Z,8.99
2023-05-05T22:19:15.941Z,8.93
2023-05-05T22:21:48.196Z,8.88
2023-05-05T22:24:20.997Z,8.82
2023-05-05T22:26:54.139Z,8.75
2023-05-05T22:29:27.027Z,8.69
2023-05-05T22:31:59.888Z,8.64
2023-05-05T22:34:32.319Z,8.59
2023-05-05T22:37:06.170Z,8.55
2023-05-05T22:39:39.316Z,8.51
2023-05-05T22:42:11.820Z,8.48
2023-05-05T22:44:44.237Z,8.45
2023-05-05T22:47:16.702Z,8.43
2023-05-05T22:49:49.359Z,8.39
2023-05-05T22:52:25.732Z,8.36
2023-05-05T22:54:58.438Z,8.35
2023-05-05T22:57:30.966Z,8.33
2023-05-05T23:00:08.706Z,8.31
2023-05-05T23:02:43.464Z,8.29
2023-05-05T23:05:16.884Z,8.28
2023-05-05T23:07:49.579Z,8.25
2023-05-05T23:10:22.437Z,8.23
2023-05-05T23:12:54.976Z,8.20
2023-05-05T23:15:29.229Z,8.19
2023-05-05T23:18:01.546Z,8.16
2023-05-05T23:20:34.133Z,8.17
2023-05-05T23:23:06.554Z,8.16
2023-05-05T23:25:39.074Z,8.14
2023-05-05T23:28:16.531Z,8.14
2023-05-05T23:30:49.204Z,8.15
2023-05-05T23:33:21.884Z,8.18
2023-05-05T23:35:54.486Z,8.20
2023-05-05T23:38:27.276Z,8.21
2023-05-05T23:41:01.431Z,8.19
2023-05-05T23:43:34.376Z,8.15
2023-05-05T23:46:07.192Z,8.10
2023-05-05T23:48:42.963Z,8.05
2023-05-05T23:51:15.663Z,8.00
2023-05-05T23:53:49.314Z,7.95
2023-05-05T23:56:21.948Z,7.90
2023-05-05T23:58:55.251Z,7.85
